sensor_id;sensor_type;location;lat;lon;timestamp;pressure;altitude;pressure_sealevel;temperature;humidity
46291;BME280;32023;44.444;26.006;2023-06-10T00:02:22;99811.59;;;19.36;56.70
46291;BME280;32023;44.444;26.006;2023-06-10T00:04:48;99814.91;;;19.30;57.12
46291;BME280;32023;44.444;26.006;2023-06-10T00:07:14;99815.06;;;19.24;57.46
46291;BME280;32023;44.444;26.006;2023-06-10T00:09:41;99810.63;;;19.15;57.75
46291;BME280;32023;44.444;26.006;2023-06-10T00:12:08;99808.50;;;19.12;57.89
46291;BME280;32023;44.444;26.006;2023-06-10T00:14:39;99808.19;;;19.13;58.08
46291;BME280;32023;44.444;26.006;2023-06-10T00:17:06;99813.75;;;19.13;58.43
46291;BME280;32023;44.444;26.006;2023-06-10T00:19:35;99819.19;;;19.10;58.43
46291;BME280;32023;44.444;26.006;2023-06-10T00:22:02;99819.50;;;19.08;58.54
46291;BME280;32023;44.444;26.006;2023-06-10T00:24:29;99828.53;;;19.05;58.71
46291;BME280;32023;44.444;26.006;2023-06-10T00:26:55;99811.47;;;18.98;59.02
46291;BME280;32023;44.444;26.006;2023-06-10T00:29:21;99820.81;;;18.94;59.24
46291;BME280;32023;44.444;26.006;2023-06-10T00:31:47;99813.44;;;18.89;59.71
46291;BME280;32023;44.444;26.006;2023-06-10T00:34:14;99821.47;;;18.82;59.96
46291;BME280;32023;44.444;26.006;2023-06-10T00:36:40;99817.22;;;18.76;60.23
46291;BME280;32023;44.444;26.006;2023-06-10T00:39:07;99817.38;;;18.71;60.51
46291;BME280;32023;44.444;26.006;2023-06-10T00:41:33;99821.28;;;18.70;60.61
46291;BME280;32023;44.444;26.006;2023-06-10T00:44:00;99811.31;;;18.69;60.85
46291;BME280;32023;44.444;26.006;2023-06-10T00:46:28;99811.63;;;18.67;60.94
46291;BME280;32023;44.444;26.006;2023-06-10T00:48:59;99808.97;;;18.62;61.14
46291;BME280;32023;44.444;26.006;2023-06-10T00:51:26;99807.69;;;18.60;61.42
46291;BME280;32023;44.444;26.006;2023-06-10T00:53:53;99816.69;;;18.57;61.73
46291;BME280;32023;44.444;26.006;2023-06-10T00:56:20;99822.94;;;18.54;61.82
46291;BME280;32023;44.444;26.006;2023-06-10T00:58:48;99815.16;;;18.51;61.87
46291;BME280;32023;44.444;26.006;2023-06-10T01:04:55;99827.78;;;18.40;62.18
46291;BME280;32023;44.444;26.006;2023-06-10T01:07:50;99818.94;;;18.38;62.47
46291;BME280;32023;44.444;26.006;2023-06-10T01:10:38;99822.03;;;18.36;62.54
46291;BME280;32023;44.444;26.006;2023-06-10T01:13:09;99818.25;;;18.32;62.77
46291;BME280;32023;44.444;26.006;2023-06-10T01:15:38;99825.00;;;18.31;62.90
46291;BME280;32023;44.444;26.006;2023-06-10T01:18:08;99832.84;;;18.29;63.19
46291;BME280;32023;44.444;26.006;2023-06-10T01:20:36;99829.56;;;18.27;63.39
46291;BME280;32023;44.444;26.006;2023-06-10T01:23:06;99827.59;;;18.27;63.45
46291;BME280;32023;44.444;26.006;2023-06-10T01:25:36;99833.50;;;18.26;63.44
46291;BME280;32023;44.444;26.006;2023-06-10T01:33:22;99831.00;;;18.16;63.98
46291;BME280;32023;44.444;26.006;2023-06-10T01:35:51;99830.19;;;18.15;64.04
46291;BME280;32023;44.444;26.006;2023-06-10T01:38:19;99830.66;;;18.17;64.07
46291;BME280;32023;44.444;26.006;2023-06-10T01:40:48;99819.53;;;18.17;64.22
46291;BME280;32023;44.444;26.006;2023-06-10T01:43:15;99827.41;;;18.15;64.49
46291;BME280;32023;44.444;26.006;2023-06-10T01:45:41;99828.53;;;18.14;64.65
46291;BME280;32023;44.444;26.006;2023-06-10T01:48:08;99826.88;;;18.13;64.75
46291;BME280;32023;44.444;26.006;2023-06-10T01:50:34;99826.56;;;18.15;64.62
46291;BME280;32023;44.444;26.006;2023-06-10T01:53:00;99832.16;;;18.15;64.78
46291;BME280;32023;44.444;26.006;2023-06-10T01:55:26;99834.09;;;18.14;64.72
46291;BME280;32023;44.444;26.006;2023-06-10T01:57:55;99834.09;;;18.14;64.82
46291;BME280;32023;44.444;26.006;2023-06-10T02:00:22;99831.31;;;18.14;64.85
46291;BME280;32023;44.444;26.006;2023-06-10T02:02:48;99832.97;;;18.15;64.73
46291;BME280;32023;44.444;26.006;2023-06-10T02:05:14;99830.19;;;18.15;64.97
46291;BME280;32023;44.444;26.006;2023-06-10T02:07:41;99835.25;;;18.13;65.03
46291;BME280;32023;44.444;26.006;2023-06-10T02:10:08;99832.28;;;18.10;65.25
46291;BME280;32023;44.444;26.006;2023-06-10T02:12:34;99830.16;;;18.07;65.47
46291;BME280;32023;44.444;26.006;2023-06-10T02:15:00;99830.97;;;18.07;65.55
46291;BME280;32023;44.444;26.006;2023-06-10T02:17:27;99827.88;;;18.09;65.52
46291;BME280;32023;44.444;26.006;2023-06-10T02:19:54;99821.97;;;18.10;65.35
46291;BME280;32023;44.444;26.006;2023-06-10T02:22:21;99821.66;;;18.12;65.34
46291;BME280;32023;44.444;26.006;2023-06-10T02:24:48;99820.81;;;18.11;65.56
46291;BME280;32023;44.444;26.006;2023-06-10T02:27:15;99828.84;;;18.13;65.28
46291;BME280;32023;44.444;26.006;2023-06-10T02:29:42;99825.75;;;18.14;65.28
46291;BME280;32023;44.444;26.006;2023-06-10T02:32:09;99836.59;;;18.16;65.16
46291;BME280;32023;44.444;26.006;2023-06-10T02:34:36;99839.03;;;18.17;65.24
46291;BME280;32023;44.444;26.006;2023-06-10T02:37:05;99838.53;;;18.15;65.35
46291;BME280;32023;44.444;26.006;2023-06-10T02:39:31;99840.81;;;18.13;65.41
46291;BME280;32023;44.444;26.006;2023-06-10T02:41:57;99838.69;;;18.10;65.47
46291;BME280;32023;44.444;26.006;2023-06-10T02:44:26;99833.28;;;18.14;65.37
46291;BME280;32023;44.444;26.006;2023-06-10T02:46:53;99828.22;;;18.16;65.36
46291;BME280;32023;44.444;26.006;2023-06-10T02:49:21;99837.06;;;18.18;65.26
46291;BME280;32023;44.444;26.006;2023-06-10T02:51:51;99844.28;;;18.19;65.26
46291;BME280;32023;44.444;26.006;2023-06-10T02:54:26;99841.16;;;18.20;65.26
46291;BME280;32023;44.444;26.006;2023-06-10T02:59:42;99808.16;;;18.05;64.98
46291;BME280;32023;44.444;26.006;2023-06-10T03:02:09;99836.97;;;18.32;64.99
46291;BME280;32023;44.444;26.006;2023-06-10T03:04:38;99841.88;;;18.35;64.92
46291;BME280;32023;44.444;26.006;2023-06-10T03:07:05;99850.06;;;18.40;64.92
46291;BME280;32023;44.444;26.006;2023-06-10T03:09:33;99855.81;;;18.43;64.93
46291;BME280;32023;44.444;26.006;2023-06-10T03:12:00;99839.28;;;18.47;64.80
46291;BME280;32023;44.444;26.006;2023-06-10T03:14:26;99846.69;;;18.51;64.78
46291;BME280;32023;44.444;26.006;2023-06-10T03:16:53;99839.00;;;18.57;64.52
46291;BME280;32023;44.444;26.006;2023-06-10T03:19:19;99838.03;;;18.61;64.48
46291;BME280;32023;44.444;26.006;2023-06-10T03:21:57;99840.66;;;18.66;64.34
46291;BME280;32023;44.444;26.006;2023-06-10T03:24:24;99833.44;;;18.74;64.14
46291;BME280;32023;44.444;26.006;2023-06-10T03:26:51;99833.78;;;18.81;64.03
46291;BME280;32023;44.444;26.006;2023-06-10T03:29:18;99831.81;;;18.90;63.67
46291;BME280;32023;44.444;26.006;2023-06-10T03:31:46;99837.72;;;18.97;63.63
46291;BME280;32023;44.444;26.006;2023-06-10T03:34:12;99843.97;;;19.03;63.41
46291;BME280;32023;44.444;26.006;2023-06-10T03:36:38;99845.94;;;19.11;63.07
46291;BME280;32023;44.444;26.006;2023-06-10T03:39:07;99841.66;;;19.13;62.93
46291;BME280;32023;44.444;26.006;2023-06-10T03:41:33;99853.00;;;19.17;62.87
46291;BME280;32023;44.444;26.006;2023-06-10T03:44:00;99849.22;;;19.21;62.69
46291;BME280;32023;44.444;26.006;2023-06-10T03:46:27;99854.97;;;19.25;62.39
46291;BME280;32023;44.444;26.006;2023-06-10T03:48:53;99852.34;;;19.29;62.31
46291;BME280;32023;44.444;26.006;2023-06-10T03:51:19;99846.56;;;19.34;62.28
46291;BME280;32023;44.444;26.006;2023-06-10T03:53:47;99846.91;;;19.41;62.16
46291;BME280;32023;44.444;26.006;2023-06-10T03:56:13;99847.25;;;19.48;61.80
46291;BME280;32023;44.444;26.006;2023-06-10T03:58:39;99840.31;;;19.54;61.76
46291;BME280;32023;44.444;26.006;2023-06-10T04:01:06;99846.72;;;19.63;61.48
46291;BME280;32023;44.444;26.006;2023-06-10T04:03:33;99845.38;;;19.69;61.24
46291;BME280;32023;44.444;26.006;2023-06-10T04:05:59;99850.13;;;19.77;60.92
46291;BME280;32023;44.444;26.006;2023-06-10T04:08:29;99851.41;;;19.88;60.62
46291;BME280;32023;44.444;26.006;2023-06-10T04:10:55;99852.22;;;19.97;60.35
46291;BME280;32023;44.444;26.006;2023-06-10T04:13:22;99855.31;;;20.04;59.99
46291;BME280;32023;44.444;26.006;2023-06-10T04:15:48;99855.59;;;20.11;59.77
46291;BME280;32023;44.444;26.006;2023-06-10T04:18:17;99854.75;;;20.19;59.68
46291;BME280;32023;44.444;26.006;2023-06-10T04:20:44;99861.78;;;20.26;59.42
46291;BME280;32023;44.444;26.006;2023-06-10T04:23:11;99868.88;;;20.32;59.14
46291;BME280;32023;44.444;26.006;2023-06-10T04:25:37;99861.91;;;20.38;59.00
46291;BME280;32023;44.444;26.006;2023-06-10T04:28:03;99865.69;;;20.42;58.85
46291;BME280;32023;44.444;26.006;2023-06-10T04:30:30;99868.94;;;20.44;58.69
46291;BME280;32023;44.444;26.006;2023-06-10T04:32:57;99868.28;;;20.47;58.61
46291;BME280;32023;44.444;26.006;2023-06-10T04:35:23;99855.59;;;20.49;58.48
46291;BME280;32023;44.444;26.006;2023-06-10T04:37:52;99865.09;;;20.57;58.34
46291;BME280;32023;44.444;26.006;2023-06-10T04:40:18;99866.19;;;20.64;58.11
46291;BME280;32023;44.444;26.006;2023-06-10T04:42:45;99866.16;;;20.73;58.04
46291;BME280;32023;44.444;26.006;2023-06-10T04:45:11;99870.38;;;20.79;58.13
46291;BME280;32023;44.444;26.006;2023-06-10T04:47:38;99864.25;;;20.86;57.97
46291;BME280;32023;44.444;26.006;2023-06-10T04:50:04;99865.00;;;20.95;57.84
46291;BME280;32023;44.444;26.006;2023-06-10T04:52:31;99859.34;;;21.03;57.69
46291;BME280;32023;44.444;26.006;2023-06-10T04:54:58;99866.66;;;21.17;57.35
46291;BME280;32023;44.444;26.006;2023-06-10T04:57:31;99865.22;;;21.31;57.03
46291;BME280;32023;44.444;26.006;2023-06-10T05:00:00;99867.25;;;21.43;56.86
46291;BME280;32023;44.444;26.006;2023-06-10T05:02:26;99864.97;;;21.57;56.57
46291;BME280;32023;44.444;26.006;2023-06-10T05:04:52;99867.81;;;21.69;56.24
46291;BME280;32023;44.444;26.006;2023-06-10T05:07:21;99877.91;;;21.82;55.42
46291;BME280;32023;44.444;26.006;2023-06-10T05:09:47;99873.53;;;21.93;54.62
46291;BME280;32023;44.444;26.006;2023-06-10T05:12:13;99872.72;;;22.05;53.75
46291;BME280;32023;44.444;26.006;2023-06-10T05:14:42;99872.16;;;22.12;53.30
46291;BME280;32023;44.444;26.006;2023-06-10T05:17:10;99878.34;;;22.17;53.07
46291;BME280;32023;44.444;26.006;2023-06-10T05:19:39;99877.06;;;22.27;52.65
46291;BME280;32023;44.444;26.006;2023-06-10T05:22:08;99875.09;;;22.39;52.26
46291;BME280;32023;44.444;26.006;2023-06-10T05:24:35;99876.38;;;22.54;51.94
46291;BME280;32023;44.444;26.006;2023-06-10T05:27:01;99869.84;;;22.62;51.57
46291;BME280;32023;44.444;26.006;2023-06-10T05:29:28;99876.53;;;22.70;51.75
46291;BME280;32023;44.444;26.006;2023-06-10T05:31:55;99879.19;;;22.78;51.93
46291;BME280;32023;44.444;26.006;2023-06-10T05:34:23;99881.16;;;22.90;51.41
46291;BME280;32023;44.444;26.006;2023-06-10T05:36:50;99867.81;;;22.99;50.99
46291;BME280;32023;44.444;26.006;2023-06-10T05:39:17;99876.91;;;23.08;50.55
46291;BME280;32023;44.444;26.006;2023-06-10T05:41:43;99870.81;;;23.18;50.22
46291;BME280;32023;44.444;26.006;2023-06-10T05:44:12;99870.28;;;23.28;49.79
46291;BME280;32023;44.444;26.006;2023-06-10T05:46:39;99863.34;;;23.38;49.65
46291;BME280;32023;44.444;26.006;2023-06-10T05:49:05;99865.22;;;23.46;49.19
46291;BME280;32023;44.444;26.006;2023-06-10T05:51:31;99863.06;;;23.55;48.61
46291;BME280;32023;44.444;26.006;2023-06-10T05:53:57;99871.25;;;23.60;48.37
46291;BME280;32023;44.444;26.006;2023-06-10T05:56:26;99868.91;;;23.62;48.19
46291;BME280;32023;44.444;26.006;2023-06-10T05:58:56;99869.09;;;23.69;47.96
46291;BME280;32023;44.444;26.006;2023-06-10T06:01:23;99877.28;;;23.74;47.54
46291;BME280;32023;44.444;26.006;2023-06-10T06:03:49;99869.84;;;23.82;47.54
46291;BME280;32023;44.444;26.006;2023-06-10T06:06:15;99862.59;;;23.81;47.43
46291;BME280;32023;44.444;26.006;2023-06-10T06:08:42;99865.03;;;23.82;47.35
46291;BME280;32023;44.444;26.006;2023-06-10T06:11:08;99876.75;;;23.84;47.35
46291;BME280;32023;44.444;26.006;2023-06-10T06:13:34;99872.59;;;23.94;47.28
46291;BME280;32023;44.444;26.006;2023-06-10T06:16:01;99873.59;;;24.02;47.07
46291;BME280;32023;44.444;26.006;2023-06-10T06:18:27;99879.41;;;24.09;46.68
46291;BME280;32023;44.444;26.006;2023-06-10T06:20:54;99871.06;;;24.12;46.29
46291;BME280;32023;44.444;26.006;2023-06-10T06:23:20;99875.16;;;24.15;46.50
46291;BME280;32023;44.444;26.006;2023-06-10T06:25:54;99870.53;;;24.22;46.50
46291;BME280;32023;44.444;26.006;2023-06-10T06:28:20;99876.34;;;24.29;46.58
46291;BME280;32023;44.444;26.006;2023-06-10T06:30:49;99877.34;;;24.37;46.24
46291;BME280;32023;44.444;26.006;2023-06-10T06:33:15;99864.66;;;24.43;46.05
46291;BME280;32023;44.444;26.006;2023-06-10T06:35:42;99866.16;;;24.56;45.40
46291;BME280;32023;44.444;26.006;2023-06-10T06:38:08;99858.88;;;24.71;45.41
46291;BME280;32023;44.444;26.006;2023-06-10T06:40:34;99867.56;;;24.81;45.09
46291;BME280;32023;44.444;26.006;2023-06-10T06:43:01;99873.13;;;24.93;44.53
46291;BME280;32023;44.444;26.006;2023-06-10T06:45:33;99878.34;;;25.11;44.05
46291;BME280;32023;44.444;26.006;2023-06-10T06:48:01;99862.56;;;25.25;43.92
46291;BME280;32023;44.444;26.006;2023-06-10T06:50:28;99863.66;;;25.40;43.42
46291;BME280;32023;44.444;26.006;2023-06-10T06:52:54;99869.69;;;25.58;42.54
46291;BME280;32023;44.444;26.006;2023-06-10T06:55:21;99862.03;;;25.77;41.56
46291;BME280;32023;44.444;26.006;2023-06-10T06:57:47;99862.00;;;25.97;41.04
46291;BME280;32023;44.444;26.006;2023-06-10T07:00:13;99863.06;;;26.11;41.00
46291;BME280;32023;44.444;26.006;2023-06-10T07:02:40;99858.97;;;26.28;40.73
46291;BME280;32023;44.444;26.006;2023-06-10T07:05:06;99864.47;;;26.44;40.26
46291;BME280;32023;44.444;26.006;2023-06-10T07:07:34;99848.13;;;26.56;39.86
46291;BME280;32023;44.444;26.006;2023-06-10T07:10:00;99858.75;;;26.66;39.11
46291;BME280;32023;44.444;26.006;2023-06-10T07:12:27;99853.31;;;26.77;38.67
46291;BME280;32023;44.444;26.006;2023-06-10T07:14:53;99847.00;;;26.87;38.91
46291;BME280;32023;44.444;26.006;2023-06-10T07:17:21;99850.38;;;26.96;38.42
46291;BME280;32023;44.444;26.006;2023-06-10T07:19:48;99848.47;;;27.04;38.67
46291;BME280;32023;44.444;26.006;2023-06-10T07:22:14;99844.09;;;27.10;38.85
46291;BME280;32023;44.444;26.006;2023-06-10T07:24:41;99847.78;;;27.14;38.75
46291;BME280;32023;44.444;26.006;2023-06-10T07:27:07;99849.47;;;27.18;39.61
46291;BME280;32023;44.444;26.006;2023-06-10T07:29:38;99857.22;;;27.25;38.66
46291;BME280;32023;44.444;26.006;2023-06-10T07:32:05;99853.13;;;27.19;38.04
46291;BME280;32023;44.444;26.006;2023-06-10T07:34:31;99845.44;;;27.19;38.10
46291;BME280;32023;44.444;26.006;2023-06-10T07:36:57;99839.50;;;27.28;38.82
46291;BME280;32023;44.444;26.006;2023-06-10T07:39:23;99844.03;;;27.36;38.48
46291;BME280;32023;44.444;26.006;2023-06-10T07:41:50;99838.81;;;27.38;37.88
46291;BME280;32023;44.444;26.006;2023-06-10T07:44:18;99847.06;;;27.50;37.86
46291;BME280;32023;44.444;26.006;2023-06-10T07:46:44;99846.03;;;27.65;37.26
46291;BME280;32023;44.444;26.006;2023-06-10T07:49:11;99838.91;;;27.79;36.40
46291;BME280;32023;44.444;26.006;2023-06-10T07:51:37;99845.91;;;27.92;35.96
46291;BME280;32023;44.444;26.006;2023-06-10T07:54:05;99847.25;;;28.01;36.33
46291;BME280;32023;44.444;26.006;2023-06-10T07:56:43;99842.50;;;28.09;35.08
46291;BME280;32023;44.444;26.006;2023-06-10T07:59:10;99843.78;;;28.18;35.46
46291;BME280;32023;44.444;26.006;2023-06-10T08:01:36;99843.44;;;28.23;35.13
46291;BME280;32023;44.444;26.006;2023-06-10T08:04:05;99847.06;;;28.24;35.34
46291;BME280;32023;44.444;26.006;2023-06-10T08:06:31;99841.41;;;28.24;34.79
46291;BME280;32023;44.444;26.006;2023-06-10T08:08:58;99839.78;;;28.23;35.99
46291;BME280;32023;44.444;26.006;2023-06-10T08:11:27;99838.94;;;28.19;36.76
46291;BME280;32023;44.444;26.006;2023-06-10T08:13:55;99854.66;;;28.13;36.17
46291;BME280;32023;44.444;26.006;2023-06-10T08:16:21;99843.69;;;28.08;35.64
46291;BME280;32023;44.444;26.006;2023-06-10T08:18:48;99837.13;;;28.04;35.79
46291;BME280;32023;44.444;26.006;2023-06-10T08:21:16;99829.84;;;28.03;37.15
46291;BME280;32023;44.444;26.006;2023-06-10T08:23:42;99849.34;;;28.08;36.66
46291;BME280;32023;44.444;26.006;2023-06-10T08:26:10;99836.88;;;28.16;35.87
46291;BME280;32023;44.444;26.006;2023-06-10T08:28:36;99845.53;;;28.34;35.46
46291;BME280;32023;44.444;26.006;2023-06-10T08:31:23;99842.50;;;28.60;34.71
46291;BME280;32023;44.444;26.006;2023-06-10T08:33:50;99837.03;;;28.81;33.80
46291;BME280;32023;44.444;26.006;2023-06-10T08:36:16;99848.44;;;28.92;33.70
46291;BME280;32023;44.444;26.006;2023-06-10T08:38:42;99846.03;;;29.01;33.14
46291;BME280;32023;44.444;26.006;2023-06-10T08:41:10;99838.03;;;29.17;33.06
46291;BME280;32023;44.444;26.006;2023-06-10T08:43:57;99838.56;;;29.40;32.67
46291;BME280;32023;44.444;26.006;2023-06-10T08:46:25;99834.22;;;29.68;31.61
46291;BME280;32023;44.444;26.006;2023-06-10T08:48:55;99834.72;;;29.91;30.90
46291;BME280;32023;44.444;26.006;2023-06-10T08:51:23;99833.53;;;30.17;30.17
46291;BME280;32023;44.444;26.006;2023-06-10T08:54:05;99822.16;;;30.38;29.28
46291;BME280;32023;44.444;26.006;2023-06-10T08:56:39;99827.06;;;30.51;28.79
46291;BME280;32023;44.444;26.006;2023-06-10T08:59:06;99823.75;;;30.71;28.87
46291;BME280;32023;44.444;26.006;2023-06-10T09:01:33;99816.41;;;30.91;28.53
46291;BME280;32023;44.444;26.006;2023-06-10T09:04:03;99816.38;;;31.19;28.08
46291;BME280;32023;44.444;26.006;2023-06-10T09:06:32;99810.53;;;31.55;27.72
46291;BME280;32023;44.444;26.006;2023-06-10T09:08:59;99815.22;;;31.89;26.83
46291;BME280;32023;44.444;26.006;2023-06-10T09:11:25;99812.56;;;32.20;25.90
46291;BME280;32023;44.444;26.006;2023-06-10T09:13:52;99819.38;;;32.36;24.75
46291;BME280;32023;44.444;26.006;2023-06-10T09:16:19;99812.88;;;32.32;24.25
46291;BME280;32023;44.444;26.006;2023-06-10T09:18:45;99803.69;;;32.59;23.38
46291;BME280;32023;44.444;26.006;2023-06-10T09:21:12;99811.19;;;32.83;23.24
46291;BME280;32023;44.444;26.006;2023-06-10T09:23:38;99806.03;;;33.08;21.75
46291;BME280;32023;44.444;26.006;2023-06-10T09:26:08;99802.47;;;33.34;22.85
46291;BME280;32023;44.444;26.006;2023-06-10T09:28:38;99801.72;;;33.61;22.60
46291;BME280;32023;44.444;26.006;2023-06-10T09:31:06;99804.50;;;33.95;21.45
46291;BME280;32023;44.444;26.006;2023-06-10T09:33:36;99799.38;;;34.36;20.51
46291;BME280;32023;44.444;26.006;2023-06-10T09:36:03;99793.66;;;34.09;20.18
46291;BME280;32023;44.444;26.006;2023-06-10T09:38:34;99795.63;;;34.12;20.24
46291;BME280;32023;44.444;26.006;2023-06-10T09:41:01;99795.19;;;34.17;20.66
46291;BME280;32023;44.444;26.006;2023-06-10T09:43:41;99795.22;;;34.41;20.78
46291;BME280;32023;44.444;26.006;2023-06-10T09:46:15;99794.81;;;34.62;20.57
46291;BME280;32023;44.444;26.006;2023-06-10T09:48:43;99788.72;;;34.83;20.30
46291;BME280;32023;44.444;26.006;2023-06-10T09:51:11;99790.03;;;34.98;20.23
46291;BME280;32023;44.444;26.006;2023-06-10T09:53:38;99787.00;;;35.28;19.91
46291;BME280;32023;44.444;26.006;2023-06-10T09:56:04;99791.53;;;35.46;19.68
46291;BME280;32023;44.444;26.006;2023-06-10T09:58:38;99793.28;;;35.40;19.40
46291;BME280;32023;44.444;26.006;2023-06-10T10:01:09;99782.16;;;35.25;19.85
46291;BME280;32023;44.444;26.006;2023-06-10T10:06:12;99776.66;;;35.15;20.29
46291;BME280;32023;44.444;26.006;2023-06-10T10:08:39;99770.03;;;35.18;20.10
46291;BME280;32023;44.444;26.006;2023-06-10T10:11:08;99775.72;;;34.98;20.48
46291;BME280;32023;44.444;26.006;2023-06-10T10:13:35;99777.19;;;34.87;20.68
46291;BME280;32023;44.444;26.006;2023-06-10T10:16:14;99767.47;;;34.38;20.49
46291;BME280;32023;44.444;26.006;2023-06-10T10:18:45;99780.19;;;33.83;21.18
46291;BME280;32023;44.444;26.006;2023-06-10T10:21:16;99769.53;;;33.57;21.41
46291;BME280;32023;44.444;26.006;2023-06-10T10:26:31;99764.41;;;33.45;21.41
46291;BME280;32023;44.444;26.006;2023-06-10T10:29:14;99761.75;;;33.30;21.53
46291;BME280;32023;44.444;26.006;2023-06-10T10:31:43;99760.38;;;33.08;21.42
46291;BME280;32023;44.444;26.006;2023-06-10T10:34:24;99765.22;;;32.77;21.91
46291;BME280;32023;44.444;26.006;2023-06-10T10:36:52;99755.97;;;32.66;22.29
46291;BME280;32023;44.444;26.006;2023-06-10T10:39:19;99755.22;;;32.59;23.02
46291;BME280;32023;44.444;26.006;2023-06-10T10:41:46;99751.59;;;32.55;22.97
46291;BME280;32023;44.444;26.006;2023-06-10T10:44:13;99752.88;;;32.46;22.39
46291;BME280;32023;44.444;26.006;2023-06-10T10:46:53;99750.56;;;32.34;22.76
46291;BME280;32023;44.444;26.006;2023-06-10T10:49:20;99749.03;;;32.23;22.60
46291;BME280;32023;44.444;26.006;2023-06-10T10:51:58;99741.78;;;32.15;22.43
46291;BME280;32023;44.444;26.006;2023-06-10T10:54:36;99750.06;;;31.95;23.06
46291;BME280;32023;44.444;26.006;2023-06-10T10:57:13;99742.91;;;31.73;23.43
46291;BME280;32023;44.444;26.006;2023-06-10T10:59:53;99742.16;;;31.62;23.43
46291;BME280;32023;44.444;26.006;2023-06-10T11:02:44;99737.25;;;31.66;23.02
46291;BME280;32023;44.444;26.006;2023-06-10T11:05:15;99734.81;;;31.68;23.11
46291;BME280;32023;44.444;26.006;2023-06-10T11:07:52;99736.44;;;31.69;23.54
46291;BME280;32023;44.444;26.006;2023-06-10T11:10:30;99734.69;;;31.82;23.42
46291;BME280;32023;44.444;26.006;2023-06-10T11:12:57;99732.25;;;31.80;23.52
46291;BME280;32023;44.444;26.006;2023-06-10T11:15:25;99727.28;;;31.91;23.06
46291;BME280;32023;44.444;26.006;2023-06-10T11:26:17;99721.22;;;33.12;20.89
46291;BME280;32023;44.444;26.006;2023-06-10T11:31:23;99727.09;;;33.85;19.80
46291;BME280;32023;44.444;26.006;2023-06-10T11:33:53;99716.41;;;34.13;19.44
46291;BME280;32023;44.444;26.006;2023-06-10T11:36:21;99718.56;;;34.32;19.65
46291;BME280;32023;44.444;26.006;2023-06-10T11:38:48;99719.97;;;34.44;19.92
46291;BME280;32023;44.444;26.006;2023-06-10T11:41:16;99713.03;;;34.21;19.83
46291;BME280;32023;44.444;26.006;2023-06-10T11:43:44;99709.38;;;34.21;19.92
46291;BME280;32023;44.444;26.006;2023-06-10T11:46:12;99712.28;;;34.41;19.52
46291;BME280;32023;44.444;26.006;2023-06-10T11:48:38;99709.63;;;34.50;19.09
46291;BME280;32023;44.444;26.006;2023-06-10T11:51:08;99702.53;;;34.58;19.15
46291;BME280;32023;44.444;26.006;2023-06-10T11:53:36;99699.09;;;34.23;19.71
46291;BME280;32023;44.444;26.006;2023-06-10T11:56:02;99704.50;;;33.95;19.97
46291;BME280;32023;44.444;26.006;2023-06-10T11:58:29;99701.63;;;33.71;20.51
46291;BME280;32023;44.444;26.006;2023-06-10T12:00:56;99696.16;;;33.54;20.75
46291;BME280;32023;44.444;26.006;2023-06-10T12:03:24;99690.31;;;33.64;21.27
46291;BME280;32023;44.444;26.006;2023-06-10T12:06:11;99687.94;;;33.56;20.96
46291;BME280;32023;44.444;26.006;2023-06-10T12:08:42;99683.00;;;33.60;20.73
46291;BME280;32023;44.444;26.006;2023-06-10T12:11:09;99685.09;;;33.56;21.47
46291;BME280;32023;44.444;26.006;2023-06-10T12:13:36;99678.91;;;33.34;21.53
46291;BME280;32023;44.444;26.006;2023-06-10T12:16:22;99677.88;;;33.21;22.05
46291;BME280;32023;44.444;26.006;2023-06-10T12:19:00;99667.84;;;33.36;22.34
46291;BME280;32023;44.444;26.006;2023-06-10T12:21:27;99666.78;;;33.53;21.88
46291;BME280;32023;44.444;26.006;2023-06-10T12:24:08;99672.22;;;33.71;21.63
46291;BME280;32023;44.444;26.006;2023-06-10T12:26:43;99664.63;;;33.88;21.41
46291;BME280;32023;44.444;26.006;2023-06-10T12:29:31;99659.59;;;33.95;21.17
46291;BME280;32023;44.444;26.006;2023-06-10T12:32:01;99666.41;;;34.01;21.12
46291;BME280;32023;44.444;26.006;2023-06-10T12:36:56;99657.63;;;33.88;21.15
46291;BME280;32023;44.444;26.006;2023-06-10T12:39:22;99654.44;;;33.60;21.71
46291;BME280;32023;44.444;26.006;2023-06-10T12:41:49;99650.81;;;33.56;22.02
46291;BME280;32023;44.444;26.006;2023-06-10T12:44:17;99644.97;;;33.39;21.80
46291;BME280;32023;44.444;26.006;2023-06-10T12:46:43;99648.69;;;33.06;22.40
46291;BME280;32023;44.444;26.006;2023-06-10T12:49:19;99648.22;;;32.81;22.41
46291;BME280;32023;44.444;26.006;2023-06-10T12:51:47;99644.75;;;32.66;23.06
46291;BME280;32023;44.444;26.006;2023-06-10T12:54:14;99637.44;;;32.65;22.94
46291;BME280;32023;44.444;26.006;2023-06-10T12:56:50;99643.47;;;32.71;22.36
46291;BME280;32023;44.444;26.006;2023-06-10T12:59:16;99631.88;;;32.85;22.46
46291;BME280;32023;44.444;26.006;2023-06-10T13:01:42;99634.13;;;33.01;22.38
46291;BME280;32023;44.444;26.006;2023-06-10T13:04:09;99634.75;;;33.15;22.62
46291;BME280;32023;44.444;26.006;2023-06-10T13:06:35;99634.63;;;33.22;22.22
46291;BME280;32023;44.444;26.006;2023-06-10T13:09:05;99631.13;;;33.38;21.70
46291;BME280;32023;44.444;26.006;2023-06-10T13:11:32;99637.53;;;33.46;21.60
46291;BME280;32023;44.444;26.006;2023-06-10T13:13:59;99627.97;;;33.56;21.90
46291;BME280;32023;44.444;26.006;2023-06-10T13:16:33;99639.41;;;33.56;21.72
46291;BME280;32023;44.444;26.006;2023-06-10T13:19:00;99632.59;;;33.50;21.68
46291;BME280;32023;44.444;26.006;2023-06-10T13:21:34;99634.63;;;33.49;22.28
46291;BME280;32023;44.444;26.006;2023-06-10T13:24:01;99627.19;;;33.28;22.46
46291;BME280;32023;44.444;26.006;2023-06-10T13:26:32;99621.34;;;33.09;22.37
46291;BME280;32023;44.444;26.006;2023-06-10T13:28:59;99616.28;;;32.93;22.87